RYR98YP LIRP-EGBB
Flight info
| Callsign | RYR98YP |
|---|---|
| Flight time | N/A |
| Altitude | 36000 |
| Route | SPEZI DCT AOSTA DCT ORSUD DCT MOLUS DCT IBODI DCT GOTED DCT TRO DCT CLM DCT KOPOR DCT ABNUR DCT DIMAL DCT ALESO T420 HEMEL |
| Aircraft | B738/M-SDE2E3FGHIRWXY/LB1 |
Departure
| Time | 2026-04-28 12:58 |
|---|---|
| Airport | Pisa International Airport (LIRP) |
Arrival
| Time | N/A |
|---|---|
| Airport | Birmingham Airport (EGBB) |
| Time | Latitude | Longitude | Altitude | Speed | Heading |
|---|---|---|---|---|---|
| 2026-04-28 12:37 | 43.69593 | 10.39869 | 14 ft | 0 kts | 98° |
| 2026-04-28 12:50 | 43.69593 | 10.39861 | 14 ft | 4 kts | 97° |
| 2026-04-28 12:50 | 43.69594 | 10.39825 | 14 ft | 4 kts | 77° |
| 2026-04-28 12:50 | 43.69584 | 10.39793 | 14 ft | 4 kts | 40° |
| 2026-04-28 12:51 | 43.69567 | 10.39782 | 14 ft | 1 kts | 7° |
| 2026-04-28 12:51 | 43.69564 | 10.39781 | 14 ft | 0 kts | 7° |
| 2026-04-28 12:53 | 43.69591 | 10.39786 | 14 ft | 9 kts | 7° |
| 2026-04-28 12:53 | 43.69669 | 10.39801 | 14 ft | 11 kts | 9° |
| 2026-04-28 12:53 | 43.69702 | 10.39841 | 16 ft | 9 kts | 75° |
| 2026-04-28 12:54 | 43.69687 | 10.39996 | 14 ft | 16 kts | 99° |
| 2026-04-28 12:54 | 43.69650 | 10.40055 | 15 ft | 6 kts | 168° |
| 2026-04-28 12:54 | 43.69597 | 10.40070 | 14 ft | 11 kts | 168° |
| 2026-04-28 12:54 | 43.69508 | 10.40082 | 15 ft | 15 kts | 173° |
| 2026-04-28 12:55 | 43.69398 | 10.40105 | 21 ft | 15 kts | 164° |
| 2026-04-28 12:55 | 43.69332 | 10.40204 | 18 ft | 15 kts | 127° |
| 2026-04-28 12:55 | 43.69280 | 10.40301 | 21 ft | 8 kts | 126° |
| 2026-04-28 12:55 | 43.69274 | 10.40311 | 20 ft | 0 kts | 126° |
| 2026-04-28 12:56 | 43.69265 | 10.40327 | 20 ft | 4 kts | 134° |
| 2026-04-28 12:56 | 43.69257 | 10.40333 | 19 ft | 0 kts | 154° |
| 2026-04-28 12:56 | 43.69252 | 10.40333 | 19 ft | 1 kts | 181° |
| 2026-04-28 12:56 | 43.69243 | 10.40327 | 20 ft | 0 kts | 216° |
| 2026-04-28 12:57 | 43.69135 | 10.40214 | 21 ft | 55 kts | 218° |
| 2026-04-28 12:57 | 43.68616 | 10.39673 | 19 ft | 129 kts | 217° |
| 2026-04-28 12:57 | 43.67734 | 10.38761 | 157 ft | 177 kts | 219° |
| 2026-04-28 12:58 | 43.67094 | 10.38090 | 798 ft | 175 kts | 219° |
| 2026-04-28 12:58 | 43.66089 | 10.37068 | 1675 ft | 188 kts | 218° |
| 2026-04-28 12:58 | 43.64953 | 10.35941 | 2191 ft | 209 kts | 216° |
| 2026-04-28 12:58 | 43.63479 | 10.34161 | 3168 ft | 221 kts | 241° |
| 2026-04-28 12:59 | 43.63121 | 10.32766 | 3480 ft | 240 kts | 258° |
| 2026-04-28 12:59 | 43.63237 | 10.30353 | 3919 ft | 263 kts | 284° |
| 2026-04-28 12:59 | 43.63750 | 10.27888 | 4800 ft | 269 kts | 285° |
| 2026-04-28 12:59 | 43.64273 | 10.25385 | 5758 ft | 272 kts | 285° |
| 2026-04-28 13:00 | 43.64801 | 10.22866 | 6670 ft | 275 kts | 285° |
| 2026-04-28 13:00 | 43.65335 | 10.20310 | 7541 ft | 279 kts | 285° |
| 2026-04-28 13:00 | 43.65874 | 10.17709 | 8385 ft | 284 kts | 285° |
| 2026-04-28 13:00 | 43.66410 | 10.15103 | 9211 ft | 288 kts | 285° |
| 2026-04-28 13:01 | 43.66958 | 10.12429 | 10039 ft | 291 kts | 285° |
| 2026-04-28 13:01 | 43.67517 | 10.09692 | 10625 ft | 306 kts | 284° |
| 2026-04-28 13:01 | 43.68116 | 10.06746 | 10818 ft | 331 kts | 285° |
| 2026-04-28 13:01 | 43.68764 | 10.03552 | 11015 ft | 355 kts | 285° |
| 2026-04-28 13:02 | 43.69442 | 10.00208 | 11479 ft | 367 kts | 285° |
| 2026-04-28 13:02 | 43.70138 | 9.96772 | 12184 ft | 372 kts | 285° |
| 2026-04-28 13:02 | 43.70833 | 9.93331 | 12972 ft | 373 kts | 284° |
| 2026-04-28 13:02 | 43.71524 | 9.89909 | 13745 ft | 375 kts | 284° |
| 2026-04-28 13:03 | 43.72226 | 9.86422 | 14482 ft | 377 kts | 284° |
| 2026-04-28 13:03 | 43.72930 | 9.82919 | 15215 ft | 380 kts | 284° |
| 2026-04-28 13:03 | 43.73636 | 9.79390 | 15906 ft | 382 kts | 284° |
| 2026-04-28 13:03 | 43.74345 | 9.75846 | 16632 ft | 383 kts | 284° |
| 2026-04-28 13:04 | 43.75060 | 9.72268 | 17304 ft | 386 kts | 284° |
| 2026-04-28 13:04 | 43.75776 | 9.68680 | 17943 ft | 388 kts | 284° |
| 2026-04-28 13:04 | 43.76498 | 9.65061 | 18578 ft | 391 kts | 284° |
| 2026-04-28 13:04 | 43.77470 | 9.61531 | 19150 ft | 396 kts | 296° |
| 2026-04-28 13:05 | 43.79024 | 9.58347 | 19728 ft | 401 kts | 308° |
| 2026-04-28 13:05 | 43.81030 | 9.55640 | 20283 ft | 407 kts | 319° |
| 2026-04-28 13:05 | 43.83284 | 9.53218 | 20844 ft | 410 kts | 320° |
| 2026-04-28 13:05 | 43.85566 | 9.50829 | 21360 ft | 413 kts | 320° |
| 2026-04-28 13:06 | 43.87872 | 9.48425 | 21850 ft | 416 kts | 320° |
| 2026-04-28 13:06 | 43.90193 | 9.45993 | 22347 ft | 419 kts | 320° |
| 2026-04-28 13:06 | 43.92516 | 9.43542 | 22825 ft | 421 kts | 320° |
| 2026-04-28 13:06 | 43.94849 | 9.41064 | 23280 ft | 423 kts | 320° |
| 2026-04-28 13:07 | 43.97157 | 9.38601 | 23711 ft | 426 kts | 320° |
| 2026-04-28 13:07 | 43.99536 | 9.36053 | 24149 ft | 428 kts | 320° |
| 2026-04-28 13:07 | 44.01900 | 9.33515 | 24572 ft | 430 kts | 319° |
| 2026-04-28 13:07 | 44.04238 | 9.30999 | 25039 ft | 431 kts | 319° |
| 2026-04-28 13:08 | 44.06609 | 9.28446 | 25454 ft | 433 kts | 319° |
| 2026-04-28 13:08 | 44.08995 | 9.25872 | 25848 ft | 435 kts | 319° |
| 2026-04-28 13:08 | 44.11394 | 9.23282 | 26187 ft | 438 kts | 319° |
| 2026-04-28 13:08 | 44.13805 | 9.20677 | 26534 ft | 440 kts | 319° |
| 2026-04-28 13:09 | 44.16223 | 9.18062 | 26910 ft | 441 kts | 319° |
| 2026-04-28 13:09 | 44.18659 | 9.15425 | 27273 ft | 443 kts | 319° |
| 2026-04-28 13:09 | 44.21097 | 9.12785 | 27622 ft | 444 kts | 319° |
| 2026-04-28 13:09 | 44.23539 | 9.10137 | 27935 ft | 446 kts | 319° |
| 2026-04-28 13:10 | 44.25999 | 9.07465 | 28225 ft | 449 kts | 319° |
| 2026-04-28 13:10 | 44.28463 | 9.04787 | 28539 ft | 450 kts | 319° |
| 2026-04-28 13:10 | 44.30931 | 9.02102 | 28934 ft | 449 kts | 319° |
| 2026-04-28 13:10 | 44.33396 | 8.99417 | 29399 ft | 446 kts | 319° |
| 2026-04-28 13:11 | 44.35831 | 8.96762 | 29872 ft | 444 kts | 319° |
| 2026-04-28 13:11 | 44.38261 | 8.94111 | 30319 ft | 442 kts | 319° |
| 2026-04-28 13:11 | 44.40684 | 8.91462 | 30700 ft | 441 kts | 319° |
| 2026-04-28 13:11 | 44.43064 | 8.88856 | 31038 ft | 441 kts | 318° |
| 2026-04-28 13:12 | 44.45511 | 8.86173 | 31401 ft | 440 kts | 319° |
| 2026-04-28 13:12 | 44.47884 | 8.83572 | 31816 ft | 438 kts | 319° |
| 2026-04-28 13:12 | 44.50275 | 8.80947 | 32189 ft | 436 kts | 318° |
| 2026-04-28 13:12 | 44.52661 | 8.78325 | 32534 ft | 436 kts | 318° |
| 2026-04-28 13:13 | 44.55042 | 8.75706 | 32912 ft | 434 kts | 318° |
| 2026-04-28 13:13 | 44.57413 | 8.73095 | 33230 ft | 433 kts | 318° |
| 2026-04-28 13:13 | 44.59776 | 8.70490 | 33554 ft | 432 kts | 318° |
| 2026-04-28 13:13 | 44.62141 | 8.67880 | 33840 ft | 432 kts | 318° |
| 2026-04-28 13:14 | 44.64498 | 8.65276 | 34162 ft | 431 kts | 318° |
| 2026-04-28 13:14 | 44.66847 | 8.62677 | 34469 ft | 429 kts | 318° |
| 2026-04-28 13:14 | 44.69194 | 8.60077 | 34747 ft | 429 kts | 318° |
| 2026-04-28 13:14 | 44.71539 | 8.57477 | 35057 ft | 428 kts | 318° |
| 2026-04-28 13:15 | 44.73873 | 8.54888 | 35384 ft | 426 kts | 318° |
| 2026-04-28 13:15 | 44.76200 | 8.52302 | 35653 ft | 426 kts | 318° |
| 2026-04-28 13:15 | 44.78527 | 8.49715 | 35880 ft | 426 kts | 318° |
| 2026-04-28 13:15 | 44.80849 | 8.47132 | 36076 ft | 426 kts | 318° |
| 2026-04-28 13:16 | 44.83158 | 8.44558 | 36065 ft | 430 kts | 318° |
| 2026-04-28 13:16 | 44.87842 | 8.39331 | 36069 ft | 428 kts | 318° |
| 2026-04-28 13:17 | 44.92478 | 8.34150 | 36068 ft | 422 kts | 318° |
| 2026-04-28 13:17 | 44.97068 | 8.29005 | 36076 ft | 421 kts | 318° |
| 2026-04-28 13:18 | 45.01654 | 8.23852 | 36079 ft | 421 kts | 318° |
| 2026-04-28 13:18 | 45.06237 | 8.18694 | 36071 ft | 421 kts | 318° |
| 2026-04-28 13:19 | 45.10792 | 8.13556 | 36065 ft | 421 kts | 317° |
| 2026-04-28 13:19 | 45.15373 | 8.08380 | 36066 ft | 421 kts | 317° |
| 2026-04-28 13:20 | 45.19950 | 8.03195 | 36063 ft | 421 kts | 317° |
| 2026-04-28 13:20 | 45.24531 | 7.97994 | 36069 ft | 422 kts | 317° |
| 2026-04-28 13:21 | 45.29088 | 7.92810 | 36051 ft | 423 kts | 317° |
| 2026-04-28 13:21 | 45.33682 | 7.87573 | 36036 ft | 423 kts | 317° |
| 2026-04-28 13:22 | 45.38281 | 7.82320 | 36036 ft | 423 kts | 317° |
| 2026-04-28 13:22 | 45.42875 | 7.77062 | 36053 ft | 423 kts | 317° |
| 2026-04-28 13:23 | 45.47461 | 7.71800 | 36060 ft | 423 kts | 317° |
| 2026-04-28 13:23 | 45.52054 | 7.66519 | 36036 ft | 424 kts | 317° |
| 2026-04-28 13:24 | 45.56630 | 7.61244 | 36034 ft | 422 kts | 317° |
| 2026-04-28 13:24 | 45.61167 | 7.56008 | 36058 ft | 422 kts | 317° |
| 2026-04-28 13:25 | 45.65723 | 7.50734 | 36023 ft | 420 kts | 317° |
| 2026-04-28 13:25 | 45.70258 | 7.45466 | 36087 ft | 418 kts | 317° |
| 2026-04-28 13:26 | 45.74801 | 7.40192 | 36053 ft | 421 kts | 317° |
| 2026-04-28 13:26 | 45.79320 | 7.34933 | 36048 ft | 421 kts | 317° |
| 2026-04-28 13:27 | 45.84091 | 7.29945 | 36042 ft | 425 kts | 321° |
| 2026-04-28 13:27 | 45.88960 | 7.25122 | 36057 ft | 425 kts | 321° |
| 2026-04-28 13:28 | 45.93817 | 7.20224 | 36062 ft | 427 kts | 320° |
| 2026-04-28 13:28 | 45.98670 | 7.15272 | 36036 ft | 428 kts | 320° |
| 2026-04-28 13:29 | 46.03514 | 7.10294 | 36035 ft | 427 kts | 320° |
| 2026-04-28 13:29 | 46.08345 | 7.05327 | 36050 ft | 427 kts | 320° |
| 2026-04-28 13:30 | 46.13150 | 7.00377 | 36031 ft | 427 kts | 320° |
| 2026-04-28 13:30 | 46.17978 | 6.95388 | 36035 ft | 427 kts | 319° |
| 2026-04-28 13:31 | 46.25216 | 6.87894 | 36056 ft | 426 kts | 319° |
| 2026-04-28 13:31 | 46.30034 | 6.82888 | 36047 ft | 426 kts | 319° |
| 2026-04-28 13:32 | 46.34851 | 6.77876 | 36046 ft | 425 kts | 319° |
| 2026-04-28 13:32 | 46.39650 | 6.72869 | 36050 ft | 425 kts | 319° |
| 2026-04-28 13:33 | 46.44391 | 6.67847 | 36034 ft | 422 kts | 316° |
| 2026-04-28 13:33 | 46.48496 | 6.61932 | 36036 ft | 415 kts | 308° |
| 2026-04-28 13:34 | 46.52446 | 6.55816 | 36050 ft | 416 kts | 309° |
| 2026-04-28 13:34 | 46.56449 | 6.49712 | 36051 ft | 418 kts | 309° |
| 2026-04-28 13:35 | 46.60477 | 6.43591 | 36051 ft | 419 kts | 309° |
| 2026-04-28 13:35 | 46.64518 | 6.37444 | 36049 ft | 421 kts | 309° |
| 2026-04-28 13:36 | 46.68569 | 6.31272 | 36051 ft | 422 kts | 309° |
| 2026-04-28 13:36 | 46.72604 | 6.25108 | 36048 ft | 422 kts | 309° |
| 2026-04-28 13:37 | 46.76658 | 6.18898 | 36052 ft | 423 kts | 309° |
| 2026-04-28 13:37 | 46.80715 | 6.12670 | 36049 ft | 423 kts | 309° |
| 2026-04-28 13:38 | 46.84770 | 6.06431 | 36053 ft | 423 kts | 309° |
| 2026-04-28 13:38 | 46.88818 | 6.00187 | 36051 ft | 422 kts | 309° |
| 2026-04-28 13:39 | 46.92836 | 5.93979 | 36026 ft | 422 kts | 308° |
| 2026-04-28 13:39 | 46.97357 | 5.88404 | 36031 ft | 432 kts | 323° |
| 2026-04-28 13:40 | 47.02694 | 5.84273 | 36027 ft | 434 kts | 327° |
| 2026-04-28 13:40 | 47.08078 | 5.80221 | 36021 ft | 434 kts | 326° |
| 2026-04-28 13:41 | 47.13434 | 5.76125 | 36030 ft | 434 kts | 326° |
| 2026-04-28 13:41 | 47.18777 | 5.71998 | 36027 ft | 434 kts | 326° |
| 2026-04-28 13:42 | 47.24118 | 5.67858 | 36033 ft | 434 kts | 326° |
| 2026-04-28 13:42 | 47.29459 | 5.63708 | 36024 ft | 434 kts | 326° |
| 2026-04-28 13:43 | 47.34799 | 5.59550 | 36029 ft | 434 kts | 326° |
| 2026-04-28 13:43 | 47.40148 | 5.55378 | 36032 ft | 435 kts | 326° |
| 2026-04-28 13:44 | 47.45463 | 5.51221 | 36028 ft | 435 kts | 326° |
| 2026-04-28 13:44 | 47.49926 | 5.47648 | 36029 ft | 432 kts | 321° |
| 2026-04-28 13:45 | 47.54387 | 5.42006 | 36026 ft | 420 kts | 305° |
| 2026-04-28 13:45 | 47.57865 | 5.35115 | 36026 ft | 417 kts | 301° |
| 2026-04-28 13:46 | 47.61267 | 5.28154 | 36030 ft | 417 kts | 301° |
| 2026-04-28 13:46 | 47.64692 | 5.21185 | 36026 ft | 418 kts | 301° |
| 2026-04-28 13:47 | 47.68108 | 5.14264 | 36030 ft | 419 kts | 301° |
| 2026-04-28 13:47 | 47.71574 | 5.07231 | 36028 ft | 420 kts | 301° |
| 2026-04-28 13:48 | 47.75001 | 5.00265 | 36025 ft | 420 kts | 301° |
| 2026-04-28 13:48 | 47.78451 | 4.93233 | 36033 ft | 421 kts | 301° |
| 2026-04-28 13:49 | 47.81897 | 4.86188 | 36029 ft | 421 kts | 301° |
| 2026-04-28 13:49 | 47.85349 | 4.79116 | 36028 ft | 421 kts | 301° |
| 2026-04-28 13:50 | 47.88794 | 4.72039 | 36027 ft | 422 kts | 300° |
| 2026-04-28 13:50 | 47.92211 | 4.65002 | 36031 ft | 421 kts | 300° |
| 2026-04-28 13:51 | 47.95647 | 4.57905 | 36027 ft | 422 kts | 300° |
| 2026-04-28 13:51 | 47.99075 | 4.50807 | 36033 ft | 422 kts | 300° |
| 2026-04-28 13:52 | 48.02507 | 4.43674 | 36026 ft | 423 kts | 300° |
| 2026-04-28 13:52 | 48.05941 | 4.36528 | 36030 ft | 423 kts | 300° |
| 2026-04-28 13:53 | 48.09376 | 4.29365 | 36031 ft | 424 kts | 300° |
| 2026-04-28 13:53 | 48.12812 | 4.22174 | 36031 ft | 425 kts | 300° |
| 2026-04-28 13:54 | 48.16249 | 4.14965 | 36032 ft | 426 kts | 300° |
| 2026-04-28 13:54 | 48.19668 | 4.07770 | 36027 ft | 426 kts | 300° |
| 2026-04-28 13:55 | 48.23105 | 4.00523 | 36018 ft | 427 kts | 300° |
| 2026-04-28 13:55 | 48.26751 | 3.93452 | 36021 ft | 432 kts | 307° |
| 2026-04-28 13:56 | 48.30921 | 3.86943 | 36014 ft | 433 kts | 308° |
| 2026-04-28 13:56 | 48.35126 | 3.80464 | 36022 ft | 433 kts | 308° |
| 2026-04-28 13:57 | 48.39296 | 3.73937 | 36027 ft | 432 kts | 308° |
| 2026-04-28 13:57 | 48.43445 | 3.67374 | 36026 ft | 432 kts | 308° |
| 2026-04-28 13:58 | 48.47551 | 3.60848 | 36032 ft | 433 kts | 308° |
| 2026-04-28 13:58 | 48.51696 | 3.54244 | 36032 ft | 434 kts | 308° |
| 2026-04-28 13:59 | 48.53616 | 3.51182 | 36035 ft | 434 kts | 308° |
| 2026-04-28 13:59 | 48.57774 | 3.44533 | 36046 ft | 436 kts | 308° |
| 2026-04-28 14:00 | 48.61941 | 3.37856 | 36036 ft | 437 kts | 308° |
| 2026-04-28 14:00 | 48.66116 | 3.31148 | 36044 ft | 438 kts | 308° |
| 2026-04-28 14:01 | 48.70275 | 3.24449 | 36053 ft | 440 kts | 308° |
| 2026-04-28 14:01 | 48.74468 | 3.17677 | 36048 ft | 442 kts | 309° |
| 2026-04-28 14:02 | 48.78673 | 3.10869 | 36056 ft | 443 kts | 309° |
| 2026-04-28 14:02 | 48.82899 | 3.04027 | 36055 ft | 445 kts | 310° |
| 2026-04-28 14:03 | 48.87849 | 2.98254 | 36061 ft | 454 kts | 326° |
| 2026-04-28 14:03 | 48.93370 | 2.93528 | 36058 ft | 456 kts | 327° |
| 2026-04-28 14:04 | 48.95815 | 2.91441 | 36054 ft | 456 kts | 327° |
| 2026-04-28 14:04 | 48.99933 | 2.87876 | 36062 ft | 456 kts | 326° |
| 2026-04-28 14:05 | 49.04218 | 2.84123 | 36071 ft | 456 kts | 326° |
| 2026-04-28 14:05 | 49.09723 | 2.79268 | 36076 ft | 457 kts | 326° |
| 2026-04-28 14:06 | 49.15238 | 2.74388 | 36073 ft | 458 kts | 326° |
| 2026-04-28 14:06 | 49.20707 | 2.69541 | 36076 ft | 458 kts | 326° |
| 2026-04-28 14:07 | 49.26222 | 2.64641 | 36081 ft | 458 kts | 327° |
| 2026-04-28 14:07 | 49.31745 | 2.59721 | 36081 ft | 458 kts | 327° |
| 2026-04-28 14:08 | 49.37211 | 2.54838 | 36093 ft | 458 kts | 327° |
| 2026-04-28 14:08 | 49.42713 | 2.49910 | 36093 ft | 458 kts | 327° |
| 2026-04-28 14:09 | 49.48193 | 2.44989 | 36101 ft | 458 kts | 327° |
| 2026-04-28 14:09 | 49.53721 | 2.40058 | 36100 ft | 459 kts | 328° |
| 2026-04-28 14:10 | 49.59335 | 2.35327 | 36108 ft | 460 kts | 329° |
| 2026-04-28 14:10 | 49.64976 | 2.30613 | 36109 ft | 461 kts | 329° |
| 2026-04-28 14:11 | 49.70561 | 2.25899 | 36114 ft | 461 kts | 329° |
| 2026-04-28 14:11 | 49.72840 | 2.23963 | 36112 ft | 462 kts | 329° |
| 2026-04-28 14:12 | 49.78475 | 2.19160 | 36116 ft | 463 kts | 329° |
| 2026-04-28 14:12 | 49.84118 | 2.14337 | 36116 ft | 463 kts | 329° |
| 2026-04-28 14:13 | 49.89728 | 2.09532 | 36124 ft | 464 kts | 329° |
| 2026-04-28 14:13 | 49.95379 | 2.04680 | 36127 ft | 464 kts | 329° |
| 2026-04-28 14:14 | 50.01032 | 1.99812 | 36126 ft | 464 kts | 329° |
| 2026-04-28 14:14 | 50.06687 | 1.94929 | 36148 ft | 465 kts | 329° |
| 2026-04-28 14:15 | 50.12341 | 1.90034 | 36154 ft | 464 kts | 329° |
| 2026-04-28 14:15 | 50.17855 | 1.84808 | 36157 ft | 463 kts | 320° |